OIBA  Abumusa Island Airport

Add Bookmark

Iran

Status IATA
Operational AEU
Latitude Longitude
25° 52' 32" N 55° 1' 58" E
25.875700 55.033001
Local (DST + 5) UTC (GMT + 4)
Sep 21, 2014 06:31 Sep 21, 2014 02:01
Sunrise-Sunset Local UTC
Begin Civil Twilight 06:13 01:43
Sunrise 06:36 02:06
Sunset 06:48 14:18
End Civil Twilight 07:11 14:41

Current Weather

METAR Observed VFR
OIBA 201500Z 27012KT CAVOK 34/28 Q1001 Sat, Sep 20, 2014 @ 15:00 UTC
(11 Hours, 1 Minute ago)
Visual Flight Rules
Wind Visibility Clouds Conditions
270° at 12 knots (22 kph) 10 km or more
  • Clear skies
  • No significant weather
Temperatures Readings Precipitation
Current Temp 34°C (93°F)
Dewpoint 28°C (82°F)
Heat Index 47°C (116°F)
Humidity 71%
Altimeter 29.56"Hg
Sea Level Pressure 1001mb
Field Elevation 22.97'
None Recorded

Additional weather within a 92.6km radius of OIBA

Map ICAO Location
OIBS 49.4km W (274°)
OIBL 75.7km N (344°)
OMDB 76.9km S (154°)
OMSJ 77.8km S (141°)

24 Hour Weather History

Loading
-

24 Hour Weather Graphs

Loading
-

CheckWX.com is intended as a tool to help pilots better visualize weather data. It is not intended as a substitute for an official weather briefing obtained from a Flight Service Station. CheckWX.com does not meet the FAA requirements for an official pre-flight weather briefing. Therefore, it's important that pilots still call and obtain an official FSS pre-flight weather briefing.